createdAt,value
2019-03-01T00:00:21.628Z,44.80
2019-03-01T00:01:21.611Z,45.60
2019-03-01T00:02:21.638Z,44.90
2019-03-01T00:03:21.605Z,44.20
2019-03-01T00:04:21.581Z,42.80
2019-03-01T00:05:21.572Z,44.40
2019-03-01T00:06:21.556Z,44.70
2019-03-01T00:07:21.545Z,45.10
2019-03-01T00:08:21.550Z,46.70
2019-03-01T00:09:21.530Z,47.70
2019-03-01T00:10:21.517Z,47.20
2019-03-01T00:11:21.518Z,46.90
2019-03-01T00:12:21.495Z,47.50
2019-03-01T00:13:21.504Z,47.70
2019-03-01T00:14:21.468Z,46.60
2019-03-01T00:15:21.513Z,47.80
2019-03-01T00:16:21.451Z,48.50
2019-03-01T00:17:21.443Z,46.50
2019-03-01T00:18:21.432Z,47.20
2019-03-01T00:19:21.414Z,48.10
2019-03-01T00:20:21.401Z,48.20
2019-03-01T00:21:21.403Z,47.60
2019-03-01T00:22:21.385Z,47.60
2019-03-01T00:23:21.375Z,47.50
2019-03-01T00:24:21.366Z,46.30
2019-03-01T00:25:21.367Z,46.70
2019-03-01T00:26:21.345Z,45.20
2019-03-01T00:27:21.327Z,42.50
2019-03-01T00:28:21.319Z,45.00
2019-03-01T00:29:21.315Z,46.10
2019-03-01T00:30:21.330Z,44.80
2019-03-01T00:31:21.285Z,46.20
2019-03-01T00:32:21.273Z,45.40
2019-03-01T00:33:21.269Z,43.60
2019-03-01T00:34:21.254Z,47.40
2019-03-01T00:35:21.246Z,46.60
2019-03-01T00:36:21.241Z,45.10
2019-03-01T00:37:21.218Z,44.50
2019-03-01T00:38:21.215Z,43.60
2019-03-01T00:39:21.204Z,44.40
2019-03-01T00:40:21.194Z,42.30
2019-03-01T00:41:21.173Z,43.70
2019-03-01T00:42:21.170Z,44.70
2019-03-01T00:43:21.149Z,44.40
2019-03-01T00:44:21.139Z,43.50
2019-03-01T00:45:21.128Z,42.30
2019-03-01T00:46:21.119Z,42.30
2019-03-01T00:47:21.143Z,42.60
2019-03-01T00:48:21.105Z,43.00
2019-03-01T00:49:21.090Z,43.80
2019-03-01T00:50:21.073Z,42.80
2019-03-01T00:51:21.062Z,41.40
2019-03-01T00:52:21.057Z,43.10
2019-03-01T00:53:21.084Z,42.20
2019-03-01T00:54:21.054Z,42.70
2019-03-01T00:55:21.027Z,42.80
2019-03-01T00:56:21.014Z,42.70
2019-03-01T00:57:21.010Z,42.90
2019-03-01T00:58:20.986Z,41.10
2019-03-01T00:59:20.986Z,44.00
2019-03-01T01:00:20.966Z,42.50
2019-03-01T01:01:20.978Z,44.10
2019-03-01T01:02:20.943Z,42.10
2019-03-01T01:03:20.938Z,42.80
2019-03-01T01:04:20.926Z,43.40
2019-03-01T01:05:20.913Z,43.60
2019-03-01T01:06:20.909Z,42.10
2019-03-01T01:07:20.893Z,42.60
2019-03-01T01:08:20.876Z,42.80
2019-03-01T01:09:20.871Z,43.00
2019-03-01T01:10:20.854Z,42.30
2019-03-01T01:11:20.844Z,42.90
2019-03-01T01:12:20.845Z,41.70
2019-03-01T01:13:20.848Z,42.70
2019-03-01T01:14:20.826Z,42.00
2019-03-01T01:15:20.804Z,42.00
2019-03-01T01:16:20.787Z,41.20
2019-03-01T01:17:20.777Z,42.20
2019-03-01T01:18:20.765Z,40.60
2019-03-01T01:19:20.772Z,41.70
2019-03-01T01:20:20.748Z,40.50
2019-03-01T01:21:20.741Z,41.40
2019-03-01T01:22:20.725Z,41.00
2019-03-01T01:23:20.713Z,40.80
2019-03-01T01:24:20.699Z,40.30
2019-03-01T01:25:20.692Z,40.40
2019-03-01T01:26:20.679Z,39.90
2019-03-01T01:27:20.711Z,39.80
2019-03-01T01:28:20.655Z,41.30
2019-03-01T01:29:20.675Z,39.40
2019-03-01T01:30:20.637Z,40.40
2019-03-01T01:31:20.622Z,40.10
2019-03-01T01:32:20.615Z,40.50
2019-03-01T01:33:20.601Z,40.50
2019-03-01T01:34:20.589Z,41.20
2019-03-01T01:35:20.596Z,39.50
2019-03-01T01:36:20.576Z,40.00
2019-03-01T01:37:20.569Z,38.90
2019-03-01T01:38:20.553Z,39.80
2019-03-01T01:39:20.534Z,40.80
2019-03-01T01:40:20.526Z,38.30
2019-03-01T01:41:20.517Z,39.40
2019-03-01T01:42:20.505Z,39.60
2019-03-01T01:43:20.502Z,40.10
2019-03-01T01:44:20.488Z,38.20
2019-03-01T01:45:20.468Z,38.30
2019-03-01T01:46:20.462Z,39.30
2019-03-01T01:47:20.457Z,39.40
2019-03-01T01:48:20.448Z,40.70
2019-03-01T01:49:20.427Z,39.50
2019-03-01T01:50:20.419Z,38.50
2019-03-01T01:51:20.405Z,39.80
2019-03-01T01:52:20.425Z,39.60
2019-03-01T01:53:20.412Z,38.50
2019-03-01T01:54:20.370Z,38.20
2019-03-01T01:55:20.366Z,38.80
2019-03-01T01:56:20.356Z,38.30
2019-03-01T01:57:20.347Z,40.10
2019-03-01T01:58:20.334Z,39.30
2019-03-01T01:59:20.318Z,41.50
2019-03-01T02:00:20.325Z,39.90
2019-03-01T02:01:20.306Z,42.30
2019-03-01T02:02:20.286Z,41.20
2019-03-01T02:03:20.271Z,40.10
2019-03-01T02:04:20.259Z,40.40
2019-03-01T02:05:20.250Z,42.00
2019-03-01T02:06:20.267Z,41.80
2019-03-01T02:07:20.231Z,40.40
2019-03-01T02:08:20.221Z,41.90
2019-03-01T02:09:20.205Z,43.10
2019-03-01T02:10:20.194Z,40.90
2019-03-01T02:11:20.182Z,42.00
2019-03-01T02:12:20.188Z,43.80
2019-03-01T02:13:20.165Z,43.20
2019-03-01T02:14:20.157Z,43.20
2019-03-01T02:15:20.141Z,43.20
2019-03-01T02:16:20.128Z,43.20
2019-03-01T02:17:20.147Z,43.60
2019-03-01T02:18:20.110Z,44.20
2019-03-01T02:19:20.101Z,41.90
2019-03-01T02:20:20.092Z,44.20
2019-03-01T02:21:20.081Z,45.10
2019-03-01T02:22:20.062Z,43.60
2019-03-01T02:23:20.115Z,43.60
2019-03-01T02:24:20.048Z,42.30
2019-03-01T02:25:20.029Z,43.00
2019-03-01T02:26:20.019Z,43.40
2019-03-01T02:27:20.013Z,41.10
2019-03-01T02:28:20.004Z,43.20
2019-03-01T02:29:20.004Z,42.70
2019-03-01T02:30:19.976Z,41.90
2019-03-01T02:31:19.981Z,42.30
2019-03-01T02:32:22.609Z,41.60
2019-03-01T02:33:19.950Z,42.50
2019-03-01T02:34:19.941Z,43.30
2019-03-01T02:35:19.922Z,41.90
2019-03-01T02:36:19.924Z,44.20
2019-03-01T02:37:19.942Z,43.40
2019-03-01T02:38:19.896Z,43.00
2019-03-01T02:39:19.887Z,43.10
2019-03-01T02:40:19.867Z,42.30
2019-03-01T02:41:19.864Z,46.20
2019-03-01T02:42:19.854Z,43.90
2019-03-01T02:43:19.875Z,45.40
2019-03-01T02:44:19.822Z,47.60
2019-03-01T02:45:19.830Z,44.50
2019-03-01T02:46:19.811Z,41.60
2019-03-01T02:47:19.791Z,42.00
2019-03-01T02:48:19.785Z,42.10
2019-03-01T02:49:19.778Z,42.30
2019-03-01T02:50:19.780Z,43.10
2019-03-01T02:51:19.751Z,42.30
2019-03-01T02:52:19.765Z,40.90
2019-03-01T02:53:19.737Z,43.00
2019-03-01T02:54:19.722Z,42.60
2019-03-01T02:55:19.739Z,42.30
2019-03-01T02:56:19.690Z,43.00
2019-03-01T02:57:19.685Z,42.80
2019-03-01T02:58:19.669Z,41.10
2019-03-01T02:59:19.682Z,39.90
2019-03-01T03:00:19.699Z,38.50
2019-03-01T03:01:19.645Z,39.50
2019-03-01T03:02:19.633Z,39.80
2019-03-01T03:03:19.619Z,40.90
2019-03-01T03:04:19.639Z,41.90
2019-03-01T03:05:19.592Z,38.90
2019-03-01T03:06:19.612Z,41.10
2019-03-01T03:07:19.574Z,40.10
2019-03-01T03:08:19.563Z,42.10
2019-03-01T03:09:19.552Z,42.60
2019-03-01T03:10:19.553Z,40.70
2019-03-01T03:11:19.533Z,39.50
2019-03-01T03:12:19.521Z,40.20
2019-03-01T03:13:19.509Z,40.60
2019-03-01T03:14:19.508Z,39.00
2019-03-01T03:15:19.488Z,40.90
2019-03-01T03:16:19.479Z,40.80
2019-03-01T03:17:19.471Z,39.50
2019-03-01T03:18:19.454Z,40.90
2019-03-01T03:19:19.446Z,40.30
2019-03-01T03:20:19.437Z,39.10
2019-03-01T03:21:19.433Z,39.50
2019-03-01T03:22:19.407Z,37.00
2019-03-01T03:23:19.398Z,38.80
2019-03-01T03:24:19.393Z,38.20
2019-03-01T03:25:19.385Z,40.10
2019-03-01T03:26:19.405Z,38.20
2019-03-01T03:27:19.353Z,38.60
2019-03-01T03:28:19.384Z,37.40
2019-03-01T03:29:19.328Z,37.30
2019-03-01T03:30:19.318Z,37.70
2019-03-01T03:31:19.312Z,37.80
2019-03-01T03:32:19.312Z,39.80
2019-03-01T03:33:19.327Z,39.20
2019-03-01T03:34:19.273Z,38.40
2019-03-01T03:35:19.274Z,40.80
2019-03-01T03:36:19.256Z,39.10
2019-03-01T03:37:19.380Z,39.80
2019-03-01T03:38:19.231Z,39.80
2019-03-01T03:39:19.243Z,39.60
2019-03-01T03:40:19.206Z,37.50
2019-03-01T03:41:19.196Z,38.00
2019-03-01T03:42:19.195Z,38.20
2019-03-01T03:43:19.181Z,39.50
2019-03-01T03:44:19.170Z,38.40
2019-03-01T03:45:19.173Z,40.10
2019-03-01T03:46:19.148Z,39.70
2019-03-01T03:47:19.166Z,39.70
2019-03-01T03:48:19.124Z,38.60
2019-03-01T03:49:19.109Z,38.40
2019-03-01T03:50:19.101Z,38.20
2019-03-01T03:51:19.088Z,36.30
2019-03-01T03:52:19.075Z,34.40
2019-03-01T03:53:19.089Z,36.50
2019-03-01T03:54:19.058Z,35.70
2019-03-01T03:55:19.049Z,35.40
2019-03-01T03:56:19.038Z,33.90
2019-03-01T03:57:19.019Z,36.20
2019-03-01T03:58:19.072Z,38.90
2019-03-01T03:59:19.005Z,38.60
2019-03-01T04:00:18.989Z,37.40
2019-03-01T04:01:18.979Z,39.10
2019-03-01T04:02:18.968Z,38.90
2019-03-01T04:03:18.957Z,38.90
2019-03-01T04:04:18.992Z,38.80
2019-03-01T04:05:18.932Z,38.90
2019-03-01T04:06:18.922Z,42.90
2019-03-01T04:07:18.914Z,40.00
2019-03-01T04:08:18.913Z,40.80
2019-03-01T04:09:18.889Z,39.80
2019-03-01T04:10:18.882Z,38.00
2019-03-01T04:11:18.885Z,38.20
2019-03-01T04:12:18.860Z,38.50
2019-03-01T04:13:18.861Z,38.60
2019-03-01T04:14:18.831Z,38.10
2019-03-01T04:15:18.854Z,39.30
2019-03-01T04:16:18.811Z,38.20
2019-03-01T04:17:18.805Z,39.60
2019-03-01T04:18:18.794Z,37.60
2019-03-01T04:19:18.778Z,38.10
2019-03-01T04:20:18.790Z,38.90
2019-03-01T04:21:18.771Z,38.40
2019-03-01T04:22:18.749Z,37.00
2019-03-01T04:23:18.739Z,38.20
2019-03-01T04:24:18.729Z,39.40
2019-03-01T04:25:18.726Z,38.30
2019-03-01T04:26:18.747Z,39.70
2019-03-01T04:27:18.690Z,40.20
2019-03-01T04:28:18.678Z,40.80
2019-03-01T04:29:18.671Z,41.40
2019-03-01T04:30:18.671Z,41.80
2019-03-01T04:31:18.649Z,38.80
2019-03-01T04:32:18.674Z,40.20
2019-03-01T04:33:18.629Z,39.70
2019-03-01T04:34:18.615Z,39.10
2019-03-01T04:35:18.605Z,39.10
2019-03-01T04:36:18.605Z,39.10
2019-03-01T04:37:18.577Z,38.60
2019-03-01T04:38:18.645Z,38.70
2019-03-01T04:39:18.560Z,39.60
2019-03-01T04:40:18.551Z,37.90
2019-03-01T04:41:18.540Z,38.10
2019-03-01T04:42:18.528Z,39.50
2019-03-01T04:43:18.517Z,40.00
2019-03-01T04:44:18.533Z,37.90
2019-03-01T04:45:18.495Z,39.70
2019-03-01T04:46:18.480Z,39.40
2019-03-01T04:47:18.477Z,39.30
2019-03-01T04:48:18.458Z,38.70
2019-03-01T04:49:18.452Z,38.90
2019-03-01T04:50:18.443Z,39.70
2019-03-01T04:51:18.425Z,42.40
2019-03-01T04:52:18.418Z,41.80
2019-03-01T04:53:18.403Z,41.90
2019-03-01T04:54:18.426Z,41.70
2019-03-01T04:55:18.394Z,40.70
2019-03-01T04:56:18.374Z,40.30
2019-03-01T04:57:18.364Z,39.60
2019-03-01T04:58:18.347Z,41.10
2019-03-01T04:59:18.335Z,41.60
2019-03-01T05:00:18.349Z,38.90
2019-03-01T05:01:18.318Z,40.70
2019-03-01T05:02:18.310Z,40.50
2019-03-01T05:03:18.296Z,41.00
2019-03-01T05:04:18.284Z,39.30
2019-03-01T05:05:18.279Z,38.80
2019-03-01T05:06:18.259Z,38.20
2019-03-01T05:07:18.247Z,39.40
2019-03-01T05:08:18.238Z,37.80
2019-03-01T05:09:18.244Z,40.60
2019-03-01T05:10:18.244Z,39.50
2019-03-01T05:11:18.219Z,39.00
2019-03-01T05:12:18.198Z,40.60
2019-03-01T05:13:18.186Z,42.20
2019-03-01T05:14:18.172Z,39.90
2019-03-01T05:15:18.166Z,39.10
2019-03-01T05:16:18.167Z,39.50
2019-03-01T05:17:18.143Z,40.20
2019-03-01T05:18:18.129Z,40.30
2019-03-01T05:19:18.144Z,41.80
2019-03-01T05:20:18.145Z,40.70
2019-03-01T05:21:18.101Z,40.50
2019-03-01T05:22:18.083Z,42.00
2019-03-01T05:23:18.080Z,43.20
2019-03-01T05:24:18.061Z,42.90
2019-03-01T05:25:18.057Z,44.50
2019-03-01T05:26:18.050Z,42.00
2019-03-01T05:27:18.033Z,43.40
2019-03-01T05:28:18.023Z,43.90
2019-03-01T05:29:18.007Z,44.20
2019-03-01T05:30:18.002Z,44.10
2019-03-01T05:31:17.995Z,45.60
2019-03-01T05:32:17.986Z,46.10
2019-03-01T05:33:17.977Z,47.00
2019-03-01T05:34:17.951Z,47.30
2019-03-01T05:35:17.945Z,50.30
2019-03-01T05:36:17.936Z,49.60
2019-03-01T05:37:17.925Z,48.00
2019-03-01T05:38:21.778Z,50.60
2019-03-01T05:39:17.902Z,48.50
2019-03-01T05:40:17.900Z,46.70
2019-03-01T05:41:17.873Z,49.50
2019-03-01T05:42:17.864Z,49.80
2019-03-01T05:43:17.851Z,53.00
2019-03-01T05:44:17.869Z,51.40
2019-03-01T05:45:17.834Z,49.50
2019-03-01T05:46:17.819Z,51.70
2019-03-01T05:47:17.812Z,49.80
2019-03-01T05:48:17.803Z,54.20
2019-03-01T05:49:17.790Z,49.80
2019-03-01T05:50:17.793Z,44.30
2019-03-01T05:51:17.770Z,50.00
2019-03-01T05:52:17.756Z,51.90
2019-03-01T05:53:17.746Z,51.60
2019-03-01T05:54:17.768Z,49.10
2019-03-01T05:55:17.728Z,47.00
2019-03-01T05:56:17.712Z,43.30
2019-03-01T05:57:17.704Z,44.90
2019-03-01T05:58:17.687Z,43.80
2019-03-01T05:59:17.681Z,45.00
2019-03-01T06:00:17.672Z,48.40
2019-03-01T06:01:17.658Z,51.70
2019-03-01T06:02:17.643Z,49.90
2019-03-01T06:03:17.631Z,43.40
2019-03-01T06:04:17.620Z,44.20
2019-03-01T06:05:17.658Z,47.90
2019-03-01T06:06:17.598Z,52.60
2019-03-01T06:07:17.591Z,51.60
2019-03-01T06:08:17.581Z,49.10
2019-03-01T06:09:17.569Z,57.20
2019-03-01T06:10:17.569Z,47.50
2019-03-01T06:11:17.546Z,52.90
2019-03-01T06:12:17.538Z,54.20
2019-03-01T06:13:17.526Z,55.70
2019-03-01T06:14:17.514Z,57.00
2019-03-01T06:15:17.512Z,52.60
2019-03-01T06:16:17.488Z,54.30
2019-03-01T06:17:17.476Z,59.40
2019-03-01T06:18:17.477Z,59.20
2019-03-01T06:19:17.457Z,62.50
2019-03-01T06:20:17.459Z,57.20
2019-03-01T06:21:17.441Z,56.60
2019-03-01T06:22:17.422Z,52.80
2019-03-01T06:23:17.416Z,57.10
2019-03-01T06:24:17.404Z,62.00
2019-03-01T06:25:17.396Z,59.60
2019-03-01T06:26:17.391Z,62.80
2019-03-01T06:27:17.384Z,60.60
2019-03-01T06:28:17.362Z,60.70
2019-03-01T06:29:17.351Z,57.70
2019-03-01T06:30:17.337Z,58.40
2019-03-01T06:31:17.337Z,57.00
2019-03-01T06:32:17.329Z,56.50
2019-03-01T06:33:17.304Z,58.50
2019-03-01T06:34:17.303Z,60.30
2019-03-01T06:35:17.282Z,58.40
2019-03-01T06:36:17.266Z,58.80
2019-03-01T06:37:17.264Z,55.10
2019-03-01T06:38:17.259Z,58.20
2019-03-01T06:39:17.236Z,59.70
2019-03-01T06:40:17.227Z,57.50
2019-03-01T06:41:17.234Z,58.40
2019-03-01T06:42:17.211Z,58.40
2019-03-01T06:43:17.228Z,57.80
2019-03-01T06:44:17.183Z,60.00
2019-03-01T06:45:17.170Z,56.00
2019-03-01T06:46:17.162Z,48.50
2019-03-01T06:47:17.147Z,54.50
2019-03-01T06:48:17.140Z,51.60
2019-03-01T06:49:17.141Z,55.40
2019-03-01T06:50:17.120Z,53.00
2019-03-01T06:51:17.102Z,57.90
2019-03-01T06:52:17.090Z,57.60
2019-03-01T06:53:17.079Z,59.60
2019-03-01T06:54:17.100Z,57.20
2019-03-01T06:55:17.083Z,57.30
2019-03-01T06:56:17.050Z,57.80
2019-03-01T06:57:17.042Z,54.40
2019-03-01T06:58:17.033Z,59.80
2019-03-01T06:59:17.015Z,60.50
2019-03-01T07:00:17.025Z,60.90
2019-03-01T07:01:16.993Z,63.20
2019-03-01T07:02:16.979Z,56.60
2019-03-01T07:03:16.975Z,57.60
2019-03-01T07:04:17.030Z,55.00
2019-03-01T07:05:16.957Z,59.40
2019-03-01T07:06:16.955Z,56.80
2019-03-01T07:07:16.928Z,62.10
2019-03-01T07:08:16.917Z,59.00
2019-03-01T07:09:16.943Z,57.10
2019-03-01T07:10:16.896Z,61.60
2019-03-01T07:11:16.892Z,55.80
2019-03-01T07:12:16.874Z,59.50
2019-03-01T07:13:16.863Z,56.90
2019-03-01T07:14:16.853Z,57.00
2019-03-01T07:15:16.872Z,58.80
2019-03-01T07:16:16.825Z,57.10
2019-03-01T07:17:16.828Z,55.00
2019-03-01T07:18:16.808Z,61.00
2019-03-01T07:19:16.798Z,57.80
2019-03-01T07:20:16.780Z,60.80
2019-03-01T07:21:16.809Z,60.60
2019-03-01T07:22:16.763Z,57.00
2019-03-01T07:23:16.751Z,60.50
2019-03-01T07:24:16.831Z,61.20
2019-03-01T07:25:16.725Z,65.80
2019-03-01T07:26:16.715Z,62.90
2019-03-01T07:27:16.721Z,61.10
2019-03-01T07:28:16.692Z,64.00
2019-03-01T07:29:16.683Z,64.40
2019-03-01T07:30:16.695Z,62.80
2019-03-01T07:31:16.663Z,63.10
2019-03-01T07:32:16.662Z,60.10
2019-03-01T07:33:16.661Z,59.40
2019-03-01T07:34:16.635Z,56.10
2019-03-01T07:35:16.640Z,57.50
2019-03-01T07:36:16.609Z,54.00
2019-03-01T07:37:16.598Z,57.20
2019-03-01T07:38:16.602Z,59.90
2019-03-01T07:39:16.575Z,61.90
2019-03-01T07:40:16.566Z,58.20
2019-03-01T07:41:16.547Z,60.60
2019-03-01T07:42:16.544Z,59.70
2019-03-01T07:43:16.590Z,58.70
2019-03-01T07:44:16.521Z,58.10
2019-03-01T07:45:16.513Z,55.00
2019-03-01T07:46:16.492Z,56.00
2019-03-01T07:47:16.490Z,63.40
2019-03-01T07:48:16.477Z,55.80
2019-03-01T07:49:16.474Z,57.60
2019-03-01T07:50:16.511Z,62.00
2019-03-01T07:51:16.444Z,57.70
2019-03-01T07:52:16.429Z,59.70
2019-03-01T07:53:16.415Z,52.40
2019-03-01T07:54:16.703Z,53.40
2019-03-01T07:55:16.394Z,56.60
2019-03-01T07:56:16.402Z,56.30
2019-03-01T07:57:16.374Z,57.20
2019-03-01T07:58:16.370Z,57.10
2019-03-01T07:59:16.386Z,58.90
2019-03-01T08:00:16.346Z,58.30
2019-03-01T08:01:16.341Z,60.10
2019-03-01T08:02:16.322Z,59.00
2019-03-01T08:03:16.313Z,53.10
2019-03-01T08:04:16.307Z,57.70
2019-03-01T08:05:16.761Z,60.10
2019-03-01T08:06:16.285Z,60.60
2019-03-01T08:07:16.275Z,58.90
2019-03-01T08:08:16.262Z,59.20
2019-03-01T08:09:16.256Z,60.80
2019-03-01T08:10:20.723Z,60.90
2019-03-01T08:11:16.237Z,59.60
2019-03-01T08:12:16.209Z,57.80
2019-03-01T08:13:17.717Z,57.50
2019-03-01T08:14:16.192Z,59.70
2019-03-01T08:15:16.190Z,57.50
2019-03-01T08:16:16.681Z,55.30
2019-03-01T08:17:16.155Z,53.60
2019-03-01T08:18:16.170Z,57.90
2019-03-01T08:19:22.626Z,59.20
2019-03-01T08:20:17.135Z,57.90
2019-03-01T08:21:16.112Z,56.40
2019-03-01T08:22:16.112Z,56.00
2019-03-01T08:23:16.097Z,53.70
2019-03-01T08:24:16.083Z,54.00
2019-03-01T08:25:22.497Z,54.00
2019-03-01T08:26:17.063Z,54.30
2019-03-01T08:27:16.057Z,55.50
2019-03-01T08:28:18.526Z,54.10
2019-03-01T08:29:17.085Z,54.70
2019-03-01T08:30:16.022Z,51.70
2019-03-01T08:31:17.537Z,51.70
2019-03-01T08:32:15.997Z,54.20
2019-03-01T08:33:15.985Z,51.30
2019-03-01T08:34:17.743Z,51.00
2019-03-01T08:35:15.962Z,50.50
2019-03-01T08:36:15.948Z,48.70
2019-03-01T08:37:17.660Z,52.00
2019-03-01T08:38:15.935Z,51.00
2019-03-01T08:39:15.926Z,52.90
2019-03-01T08:40:15.910Z,53.20
2019-03-01T08:41:15.898Z,50.60
2019-03-01T08:42:15.934Z,52.60
2019-03-01T08:43:15.876Z,51.70
2019-03-01T08:44:15.864Z,50.50
2019-03-01T08:45:15.859Z,51.20
2019-03-01T08:46:15.844Z,50.30
2019-03-01T08:47:20.254Z,50.20
2019-03-01T08:48:16.860Z,51.90
2019-03-01T08:49:15.814Z,50.50
2019-03-01T08:50:15.798Z,49.00
2019-03-01T08:51:15.798Z,50.30
2019-03-01T08:52:15.773Z,49.20
2019-03-01T08:53:16.156Z,48.50
2019-03-01T08:54:15.767Z,51.20
2019-03-01T08:55:15.742Z,51.00
2019-03-01T08:56:15.738Z,51.70
2019-03-01T08:57:15.731Z,51.80
2019-03-01T08:58:15.708Z,53.20
2019-03-01T08:59:17.441Z,51.50
2019-03-01T09:00:15.692Z,52.20
2019-03-01T09:01:15.686Z,52.10
2019-03-01T09:02:15.667Z,49.60
2019-03-01T09:03:17.219Z,49.80
2019-03-01T09:04:17.581Z,51.00
2019-03-01T09:05:15.647Z,52.30
2019-03-01T09:06:15.635Z,49.50
2019-03-01T09:07:15.632Z,49.50
2019-03-01T09:08:15.614Z,49.80
2019-03-01T09:09:17.619Z,50.20
2019-03-01T09:10:16.580Z,52.00
2019-03-01T09:11:15.571Z,51.30
2019-03-01T09:12:15.591Z,48.60
2019-03-01T09:13:15.553Z,49.60
2019-03-01T09:14:15.548Z,45.10
2019-03-01T09:15:15.533Z,49.50
2019-03-01T09:16:15.516Z,47.90
2019-03-01T09:17:15.505Z,51.00
2019-03-01T09:18:15.528Z,51.90
2019-03-01T09:19:15.484Z,49.20
2019-03-01T09:20:15.477Z,47.50
2019-03-01T09:21:15.461Z,46.70
2019-03-01T09:22:15.450Z,49.10
2019-03-01T09:23:22.865Z,49.10
2019-03-01T09:24:16.457Z,49.00
2019-03-01T09:25:15.416Z,46.00
2019-03-01T09:26:16.715Z,47.60
2019-03-01T09:27:15.400Z,48.60
2019-03-01T09:28:15.411Z,47.70
2019-03-01T09:29:18.474Z,48.30
2019-03-01T09:30:15.401Z,47.10
2019-03-01T09:31:15.354Z,45.60
2019-03-01T09:32:15.366Z,50.40
2019-03-01T09:33:17.211Z,47.10
2019-03-01T09:34:16.329Z,47.20
2019-03-01T09:35:15.314Z,46.80
2019-03-01T09:36:17.833Z,47.80
2019-03-01T09:37:16.291Z,47.70
2019-03-01T09:38:15.282Z,46.30
2019-03-01T09:39:18.127Z,47.40
2019-03-01T09:40:15.266Z,46.60
2019-03-01T09:41:15.249Z,49.40
2019-03-01T09:42:15.671Z,47.80
2019-03-01T09:43:15.250Z,46.00
2019-03-01T09:44:15.224Z,47.40
2019-03-01T09:45:15.206Z,48.70
2019-03-01T09:46:15.198Z,47.10
2019-03-01T09:47:15.183Z,48.50
2019-03-01T09:48:15.175Z,46.90
2019-03-01T09:49:15.169Z,48.80
2019-03-01T09:50:15.197Z,49.80
2019-03-01T09:51:15.954Z,49.30
2019-03-01T09:52:15.131Z,49.20
2019-03-01T09:53:15.126Z,48.60
2019-03-01T09:54:15.104Z,48.90
2019-03-01T09:55:15.092Z,49.80
2019-03-01T09:56:15.092Z,49.20
2019-03-01T09:57:15.657Z,47.50
2019-03-01T09:58:15.062Z,49.90
2019-03-01T09:59:15.055Z,47.40
2019-03-01T10:00:15.046Z,47.20
2019-03-01T10:01:15.066Z,46.60
2019-03-01T10:02:15.022Z,47.30
2019-03-01T10:03:15.006Z,48.30
2019-03-01T10:04:15.009Z,48.60
2019-03-01T10:05:14.994Z,48.60
2019-03-01T10:06:14.986Z,47.40
2019-03-01T10:07:14.969Z,47.30
2019-03-01T10:08:14.955Z,47.90
2019-03-01T10:09:14.943Z,49.40
2019-03-01T10:10:14.938Z,47.70
2019-03-01T10:11:14.916Z,46.20
2019-03-01T10:12:14.913Z,43.50
2019-03-01T10:13:14.927Z,46.60
2019-03-01T10:14:14.882Z,47.70
2019-03-01T10:15:14.871Z,48.10
2019-03-01T10:16:14.862Z,46.40
2019-03-01T10:17:14.850Z,49.00
2019-03-01T10:18:14.836Z,42.50
2019-03-01T10:19:14.842Z,46.70
2019-03-01T10:20:14.820Z,49.60
2019-03-01T10:21:14.805Z,49.40
2019-03-01T10:22:14.800Z,47.60
2019-03-01T10:23:14.812Z,47.00
2019-03-01T10:24:14.785Z,49.00
2019-03-01T10:25:14.762Z,48.80
2019-03-01T10:26:14.746Z,47.50
2019-03-01T10:27:14.742Z,47.20
2019-03-01T10:28:14.724Z,47.90
2019-03-01T10:29:14.723Z,47.30
2019-03-01T10:30:14.703Z,50.20
2019-03-01T10:31:14.696Z,48.10
2019-03-01T10:32:14.689Z,47.30
2019-03-01T10:33:14.686Z,46.50
2019-03-01T10:34:14.663Z,49.20
2019-03-01T10:35:14.728Z,49.40
2019-03-01T10:36:14.636Z,48.60
2019-03-01T10:37:14.637Z,51.70
2019-03-01T10:38:14.622Z,48.30
2019-03-01T10:39:14.603Z,50.60
2019-03-01T10:40:14.607Z,49.60
2019-03-01T10:41:14.601Z,49.90
2019-03-01T10:42:14.579Z,47.70
2019-03-01T10:43:14.572Z,50.20
2019-03-01T10:44:14.555Z,47.60
2019-03-01T10:45:14.537Z,50.00
2019-03-01T10:46:14.543Z,48.20
2019-03-01T10:47:14.515Z,50.00
2019-03-01T10:48:14.502Z,48.70
2019-03-01T10:49:14.495Z,47.30
2019-03-01T10:50:14.487Z,48.50
2019-03-01T10:51:14.488Z,46.90
2019-03-01T10:52:14.465Z,47.80
2019-03-01T10:53:14.508Z,47.10
2019-03-01T10:54:14.442Z,50.20
2019-03-01T10:55:14.433Z,49.50
2019-03-01T10:56:14.450Z,49.30
2019-03-01T10:57:14.403Z,48.10
2019-03-01T10:58:14.399Z,45.70
2019-03-01T10:59:14.381Z,46.90
2019-03-01T11:00:14.375Z,47.90
2019-03-01T11:01:14.360Z,47.60
2019-03-01T11:02:14.367Z,46.30
2019-03-01T11:03:14.341Z,46.80
2019-03-01T11:04:14.339Z,49.50
2019-03-01T11:05:14.323Z,47.90
2019-03-01T11:06:14.313Z,46.70
2019-03-01T11:07:14.314Z,48.20
2019-03-01T11:08:14.290Z,46.60
2019-03-01T11:09:14.274Z,48.70
2019-03-01T11:10:14.265Z,50.20
2019-03-01T11:11:14.249Z,49.90
2019-03-01T11:12:14.253Z,49.80
2019-03-01T11:13:14.239Z,51.10
2019-03-01T11:14:14.224Z,50.30
2019-03-01T11:15:14.209Z,48.40
2019-03-01T11:16:14.202Z,50.10
2019-03-01T11:17:14.191Z,51.80
2019-03-01T11:18:14.223Z,50.60
2019-03-01T11:19:14.204Z,49.20
2019-03-01T11:20:14.147Z,50.30
2019-03-01T11:21:14.146Z,50.20
2019-03-01T11:22:14.124Z,50.70
2019-03-01T11:23:14.114Z,49.90
2019-03-01T11:24:14.119Z,47.70
2019-03-01T11:25:14.101Z,48.70
2019-03-01T11:26:14.079Z,50.60
2019-03-01T11:27:14.074Z,49.30
2019-03-01T11:28:14.107Z,51.50
2019-03-01T11:29:14.050Z,50.60
2019-03-01T11:30:14.038Z,50.10
2019-03-01T11:31:14.027Z,51.80
2019-03-01T11:32:14.012Z,50.80
2019-03-01T11:33:14.007Z,53.40
2019-03-01T11:34:13.996Z,52.20
2019-03-01T11:35:13.995Z,52.10
2019-03-01T11:36:13.983Z,56.90
2019-03-01T11:37:13.962Z,53.80
2019-03-01T11:38:13.950Z,57.90
2019-03-01T11:39:13.943Z,57.30
2019-03-01T11:40:13.940Z,56.40
2019-03-01T11:41:13.927Z,56.90
2019-03-01T11:42:13.908Z,56.80
2019-03-01T11:43:13.892Z,59.70
2019-03-01T11:44:13.891Z,62.00
2019-03-01T11:45:13.873Z,61.10
2019-03-01T11:46:13.874Z,61.40
2019-03-01T11:47:13.859Z,62.60
2019-03-01T11:48:13.842Z,61.90
2019-03-01T11:49:13.828Z,64.00
2019-03-01T11:50:13.815Z,65.30
2019-03-01T11:51:13.814Z,66.80
2019-03-01T11:52:13.798Z,61.10
2019-03-01T11:53:13.779Z,63.60
2019-03-01T11:54:13.768Z,65.60
2019-03-01T11:55:13.763Z,62.90
2019-03-01T11:56:13.801Z,62.60
2019-03-01T11:57:13.741Z,65.70
2019-03-01T11:58:13.735Z,68.60
2019-03-01T11:59:13.718Z,63.70
2019-03-01T12:00:13.710Z,65.20
2019-03-01T12:01:17.147Z,63.40
2019-03-01T12:02:13.693Z,65.60
2019-03-01T12:03:15.338Z,61.40
2019-03-01T12:04:13.687Z,65.90
2019-03-01T12:05:13.653Z,63.20
2019-03-01T12:06:13.640Z,67.20
2019-03-01T12:07:13.668Z,55.50
2019-03-01T12:08:13.623Z,64.40
2019-03-01T12:09:13.605Z,65.20
2019-03-01T12:10:13.597Z,62.10
2019-03-01T12:11:13.581Z,62.30
2019-03-01T12:12:13.574Z,61.70
2019-03-01T12:13:13.573Z,62.20
2019-03-01T12:14:13.554Z,60.10
2019-03-01T12:15:13.536Z,62.30
2019-03-01T12:16:13.573Z,63.40
2019-03-01T12:17:13.518Z,63.10
2019-03-01T12:18:13.509Z,63.80
2019-03-01T12:19:13.499Z,62.20
2019-03-01T12:20:13.487Z,65.20
2019-03-01T12:21:13.475Z,62.00
2019-03-01T12:22:17.217Z,59.30
2019-03-01T12:23:13.486Z,63.10
2019-03-01T12:24:13.440Z,64.20
2019-03-01T12:25:13.428Z,62.60
2019-03-01T12:26:13.417Z,60.40
2019-03-01T12:27:13.411Z,60.90
2019-03-01T12:28:13.401Z,63.80
2019-03-01T12:29:13.437Z,63.60
2019-03-01T12:30:13.379Z,62.70
2019-03-01T12:31:13.368Z,59.10
2019-03-01T12:32:13.351Z,59.40
2019-03-01T12:33:13.340Z,59.00
2019-03-01T12:34:13.328Z,63.90
2019-03-01T12:35:13.352Z,60.40
2019-03-01T12:36:13.309Z,62.90
2019-03-01T12:37:13.298Z,50.10
2019-03-01T12:38:13.284Z,56.00
2019-03-01T12:39:13.278Z,56.80
2019-03-01T12:40:13.304Z,52.80
2019-03-01T12:41:13.264Z,51.50
2019-03-01T12:42:13.247Z,54.80
2019-03-01T12:43:13.248Z,44.40
2019-03-01T12:44:13.225Z,50.90
2019-03-01T12:45:13.212Z,50.50
2019-03-01T12:46:13.213Z,48.30
2019-03-01T12:47:13.205Z,48.70
2019-03-01T12:48:13.173Z,51.70
2019-03-01T12:49:13.182Z,47.70
2019-03-01T12:50:13.161Z,50.40
2019-03-01T12:51:13.164Z,52.30
2019-03-01T12:52:13.137Z,50.30